createdAt,value
2023-05-01T00:00:11.572Z,32.24
2023-05-01T00:01:11.607Z,32.24
2023-05-01T00:02:11.629Z,32.31
2023-05-01T00:03:11.644Z,32.24
2023-05-01T00:04:11.852Z,32.25
2023-05-01T00:05:11.901Z,32.27
2023-05-01T00:06:11.682Z,32.27
2023-05-01T00:07:11.701Z,32.29
2023-05-01T00:08:11.759Z,32.32
2023-05-01T00:09:11.748Z,32.22
2023-05-01T00:10:12.282Z,32.26
2023-05-01T00:11:11.810Z,32.24
2023-05-01T00:12:11.848Z,32.28
2023-05-01T00:13:11.862Z,32.32
2023-05-01T00:14:11.885Z,32.24
2023-05-01T00:15:12.294Z,32.22
2023-05-01T00:16:11.943Z,32.21
2023-05-01T00:17:11.982Z,32.22
2023-05-01T00:18:12.022Z,32.22
2023-05-01T00:19:12.049Z,32.24
2023-05-01T00:20:12.048Z,32.21
2023-05-01T00:21:12.112Z,32.28
2023-05-01T00:22:12.117Z,32.24
2023-05-01T00:23:12.156Z,32.24
2023-05-01T00:24:12.174Z,32.26
2023-05-01T00:25:12.239Z,32.25
2023-05-01T00:26:12.192Z,32.26
2023-05-01T00:27:12.259Z,32.26
2023-05-01T00:28:12.275Z,32.25
2023-05-01T00:29:12.290Z,32.25
2023-05-01T00:30:12.300Z,32.26
2023-05-01T00:31:12.473Z,32.25
2023-05-01T00:32:12.489Z,32.25
2023-05-01T00:33:12.397Z,32.25
2023-05-01T00:34:12.440Z,32.24
2023-05-01T00:35:12.467Z,32.26
2023-05-01T00:36:12.459Z,32.28
2023-05-01T00:37:12.547Z,32.22
2023-05-01T00:38:12.542Z,32.25
2023-05-01T00:39:12.562Z,32.26
2023-05-01T00:40:12.782Z,32.28
2023-05-01T00:41:12.623Z,32.25
2023-05-01T00:42:12.630Z,32.28
2023-05-01T00:43:12.742Z,32.24
2023-05-01T00:44:12.695Z,32.25
2023-05-01T00:45:12.736Z,32.26
2023-05-01T00:46:12.794Z,32.27
2023-05-01T00:47:12.784Z,32.24
2023-05-01T00:48:12.791Z,32.28
2023-05-01T00:49:12.883Z,32.24
2023-05-01T00:50:12.842Z,32.30
2023-05-01T00:51:12.900Z,32.24
2023-05-01T00:52:12.903Z,32.22
2023-05-01T00:53:12.959Z,32.27
2023-05-01T00:54:13.029Z,32.25
2023-05-01T00:55:12.999Z,32.25
2023-05-01T00:56:13.094Z,32.26
2023-05-01T00:57:13.103Z,32.28
2023-05-01T00:58:13.092Z,32.26
2023-05-01T00:59:13.143Z,32.22
2023-05-01T01:00:13.329Z,32.26
2023-05-01T01:01:13.323Z,32.25
2023-05-01T01:02:13.241Z,32.26
2023-05-01T01:03:13.302Z,32.27
2023-05-01T01:04:13.315Z,32.25
2023-05-01T01:05:13.819Z,32.27
2023-05-01T01:06:13.420Z,32.29
2023-05-01T01:07:13.405Z,32.22
2023-05-01T01:08:13.445Z,32.26
2023-05-01T01:09:13.454Z,32.30
2023-05-01T01:10:13.489Z,32.24
2023-05-01T01:11:13.534Z,32.25
2023-05-01T01:12:13.546Z,32.29
2023-05-01T01:13:13.579Z,32.26
2023-05-01T01:14:13.622Z,32.26
2023-05-01T01:15:13.836Z,32.26
2023-05-01T01:16:13.690Z,32.31
2023-05-01T01:17:13.879Z,32.23
2023-05-01T01:18:13.814Z,32.24
2023-05-01T01:19:13.772Z,32.27
2023-05-01T01:20:13.845Z,32.21
2023-05-01T01:21:13.816Z,32.20
2023-05-01T01:22:13.855Z,32.27
2023-05-01T01:23:13.909Z,32.24
2023-05-01T01:24:13.933Z,32.28
2023-05-01T01:25:14.313Z,32.23
2023-05-01T01:26:13.962Z,32.28
2023-05-01T01:27:13.975Z,32.28
2023-05-01T01:28:13.993Z,32.27
2023-05-01T01:29:14.068Z,32.24
2023-05-01T01:30:14.084Z,32.24
2023-05-01T01:31:14.170Z,32.26
2023-05-01T01:32:14.157Z,32.21
2023-05-01T01:33:14.157Z,32.28
2023-05-01T01:34:14.239Z,32.24
2023-05-01T01:35:14.350Z,32.25
2023-05-01T01:36:14.270Z,32.27
2023-05-01T01:37:14.301Z,32.29
2023-05-01T01:38:14.306Z,32.29
2023-05-01T01:39:14.339Z,32.27
2023-05-01T01:40:14.857Z,32.21
2023-05-01T01:41:14.426Z,32.28
2023-05-01T01:42:14.393Z,32.25
2023-05-01T01:43:14.443Z,32.26
2023-05-01T01:44:14.481Z,32.25
2023-05-01T01:45:14.517Z,32.27
2023-05-01T01:46:14.604Z,32.27
2023-05-01T01:47:14.572Z,32.28
2023-05-01T01:48:14.614Z,32.30
2023-05-01T01:49:14.693Z,32.27
2023-05-01T01:50:14.659Z,32.27
2023-05-01T01:51:14.737Z,32.28
2023-05-01T01:52:14.748Z,32.28
2023-05-01T01:53:14.786Z,32.26
2023-05-01T01:54:14.834Z,32.28
2023-05-01T01:55:14.826Z,32.26
2023-05-01T01:56:14.868Z,32.27
2023-05-01T01:57:14.941Z,32.23
2023-05-01T01:58:14.956Z,32.29
2023-05-01T01:59:14.985Z,32.24
2023-05-01T02:00:15.084Z,32.25
2023-05-01T02:01:15.099Z,32.28
2023-05-01T02:02:15.112Z,32.25
2023-05-01T02:03:15.278Z,32.26
2023-05-01T02:04:15.297Z,32.22
2023-05-01T02:05:15.217Z,32.25
2023-05-01T02:06:15.265Z,32.26
2023-05-01T02:07:15.316Z,32.25
2023-05-01T02:08:15.332Z,32.23
2023-05-01T02:09:15.390Z,32.25
2023-05-01T02:10:15.384Z,32.23
2023-05-01T02:11:15.463Z,32.26
2023-05-01T02:12:15.501Z,32.23
2023-05-01T02:13:15.589Z,32.23
2023-05-01T02:14:15.595Z,32.24
2023-05-01T02:15:15.635Z,32.32
2023-05-01T02:16:15.696Z,32.26
2023-05-01T02:17:15.705Z,32.25
2023-05-01T02:18:15.710Z,32.22
2023-05-01T02:19:15.762Z,32.25
2023-05-01T02:20:15.787Z,32.24
2023-05-01T02:21:15.787Z,32.25
2023-05-01T02:22:15.845Z,32.21
2023-05-01T02:23:15.895Z,32.25
2023-05-01T02:24:15.904Z,32.25
2023-05-01T02:25:15.968Z,32.26
2023-05-01T02:26:16.019Z,32.24
2023-05-01T02:27:16.103Z,32.28
2023-05-01T02:28:16.135Z,32.29
2023-05-01T02:29:16.162Z,32.25
2023-05-01T02:30:16.162Z,32.22
2023-05-01T02:31:16.374Z,32.26
2023-05-01T02:32:16.218Z,32.25
2023-05-01T02:33:16.252Z,32.28
2023-05-01T02:34:16.952Z,32.24
2023-05-01T02:35:16.362Z,32.25
2023-05-01T02:36:16.381Z,32.27
2023-05-01T02:37:16.473Z,32.25
2023-05-01T02:38:16.485Z,32.25
2023-05-01T02:39:16.510Z,32.22
2023-05-01T02:40:16.561Z,32.25
2023-05-01T02:41:16.621Z,32.25
2023-05-01T02:42:16.655Z,32.28
2023-05-01T02:43:16.720Z,32.26
2023-05-01T02:44:16.715Z,32.29
2023-05-01T02:45:16.829Z,32.30
2023-05-01T02:46:16.860Z,32.25
2023-05-01T02:47:16.964Z,32.24
2023-05-01T02:48:16.951Z,32.21
2023-05-01T02:49:16.926Z,32.29
2023-05-01T02:50:17.832Z,32.26
2023-05-01T02:51:16.999Z,32.31
2023-05-01T02:52:17.902Z,32.25
2023-05-01T02:53:17.059Z,32.26
2023-05-01T02:54:17.108Z,32.27
2023-05-01T02:55:17.202Z,32.23
2023-05-01T02:56:17.219Z,32.26
2023-05-01T02:57:17.226Z,32.26
2023-05-01T02:58:17.310Z,32.26
2023-05-01T02:59:17.336Z,32.24
2023-05-01T03:00:17.382Z,32.26
2023-05-01T03:01:17.462Z,32.25
2023-05-01T03:02:17.461Z,32.26
2023-05-01T03:03:17.538Z,32.26
2023-05-01T03:04:17.590Z,32.27
2023-05-01T03:05:17.579Z,32.27
2023-05-01T03:06:17.660Z,32.29
2023-05-01T03:07:17.634Z,32.29
2023-05-01T03:08:17.708Z,32.29
2023-05-01T03:09:17.728Z,32.25
2023-05-01T03:10:17.756Z,32.27
2023-05-01T03:11:17.849Z,32.27
2023-05-01T03:12:17.843Z,32.23
2023-05-01T03:13:17.891Z,32.22
2023-05-01T03:14:17.945Z,32.27
2023-05-01T03:15:17.950Z,32.23
2023-05-01T03:16:18.114Z,32.30
2023-05-01T03:17:18.038Z,32.27
2023-05-01T03:18:18.122Z,32.27
2023-05-01T03:19:18.165Z,32.28
2023-05-01T03:20:18.216Z,32.26
2023-05-01T03:21:18.228Z,32.24
2023-05-01T03:22:18.258Z,32.30
2023-05-01T03:23:18.295Z,32.22
2023-05-01T03:24:18.347Z,32.20
2023-05-01T03:25:18.453Z,32.24
2023-05-01T03:26:18.912Z,32.24
2023-05-01T03:27:18.489Z,32.31
2023-05-01T03:28:18.555Z,32.28
2023-05-01T03:29:18.558Z,32.26
2023-05-01T03:30:18.626Z,32.28
2023-05-01T03:31:18.653Z,32.22
2023-05-01T03:32:18.706Z,32.26
2023-05-01T03:33:18.745Z,32.28
2023-05-01T03:34:18.772Z,32.22
2023-05-01T03:35:18.906Z,32.28
2023-05-01T03:36:19.378Z,32.28
2023-05-01T03:37:18.892Z,32.31
2023-05-01T03:38:18.991Z,32.27
2023-05-01T03:39:19.018Z,32.26
2023-05-01T03:40:19.105Z,32.28
2023-05-01T03:41:19.113Z,32.30
2023-05-01T03:42:19.143Z,32.24
2023-05-01T03:43:19.208Z,32.26
2023-05-01T03:44:19.233Z,32.26
2023-05-01T03:45:19.292Z,32.23
2023-05-01T03:46:19.345Z,32.23
2023-05-01T03:47:19.357Z,32.28
2023-05-01T03:48:19.425Z,32.23
2023-05-01T03:49:19.469Z,32.23
2023-05-01T03:50:19.499Z,32.26
2023-05-01T03:51:19.579Z,32.24
2023-05-01T03:52:19.642Z,32.28
2023-05-01T03:53:19.695Z,32.28
2023-05-01T03:54:19.713Z,32.27
2023-05-01T03:55:19.810Z,32.27
2023-05-01T03:56:19.833Z,32.25
2023-05-01T03:57:19.905Z,32.26
2023-05-01T03:58:19.917Z,32.23
2023-05-01T03:59:19.957Z,32.30
2023-05-01T04:00:20.022Z,32.24
2023-05-01T04:01:20.065Z,32.31
2023-05-01T04:02:20.190Z,32.27
2023-05-01T04:03:20.267Z,32.25
2023-05-01T04:04:20.293Z,32.26
2023-05-01T04:05:20.265Z,32.27
2023-05-01T04:06:20.437Z,32.31
2023-05-01T04:07:20.319Z,32.30
2023-05-01T04:08:20.389Z,32.27
2023-05-01T04:09:20.431Z,32.30
2023-05-01T04:10:20.484Z,32.24
2023-05-01T04:11:20.539Z,32.25
2023-05-01T04:12:20.565Z,32.24
2023-05-01T04:13:20.635Z,32.26
2023-05-01T04:14:20.678Z,32.24
2023-05-01T04:15:20.699Z,32.21
2023-05-01T04:16:20.807Z,32.24
2023-05-01T04:17:20.781Z,32.23
2023-05-01T04:18:20.870Z,32.26
2023-05-01T04:19:20.927Z,32.29
2023-05-01T04:20:20.966Z,32.21
2023-05-01T04:21:21.041Z,32.30
2023-05-01T04:22:21.092Z,32.27
2023-05-01T04:23:22.151Z,32.28
2023-05-01T04:24:21.180Z,32.29
2023-05-01T04:25:21.239Z,32.32
2023-05-01T04:26:21.383Z,32.28
2023-05-01T04:27:21.329Z,32.28
2023-05-01T04:28:21.379Z,32.26
2023-05-01T04:29:21.396Z,32.25
2023-05-01T04:30:21.445Z,32.28
2023-05-01T04:31:21.517Z,32.29
2023-05-01T04:32:21.586Z,32.25
2023-05-01T04:33:21.587Z,32.24
2023-05-01T04:34:21.599Z,32.24
2023-05-01T04:35:21.702Z,32.31
2023-05-01T04:36:21.870Z,32.25
2023-05-01T04:37:21.775Z,32.22
2023-05-01T04:38:21.811Z,32.26
2023-05-01T04:39:21.838Z,32.29
2023-05-01T04:40:21.962Z,32.24
2023-05-01T04:41:21.977Z,32.28
2023-05-01T04:42:22.053Z,32.29
2023-05-01T04:43:22.119Z,32.25
2023-05-01T04:44:22.164Z,32.26
2023-05-01T04:45:22.223Z,32.24
2023-05-01T04:46:22.335Z,32.25
2023-05-01T04:47:22.306Z,32.25
2023-05-01T04:48:22.548Z,32.29
2023-05-01T04:49:22.391Z,32.28
2023-05-01T04:50:22.428Z,32.28
2023-05-01T04:51:22.913Z,32.28
2023-05-01T04:52:22.538Z,32.33
2023-05-01T04:53:22.610Z,32.42
2023-05-01T04:54:22.654Z,32.45
2023-05-01T04:55:22.714Z,32.48
2023-05-01T04:56:22.900Z,32.48
2023-05-01T04:57:22.813Z,32.53
2023-05-01T04:58:22.894Z,32.58
2023-05-01T04:59:22.921Z,32.63
2023-05-01T05:00:22.986Z,32.73
2023-05-01T05:01:23.071Z,32.72
2023-05-01T05:02:23.299Z,32.76
2023-05-01T05:03:23.262Z,32.77
2023-05-01T05:04:23.233Z,32.85
2023-05-01T05:05:23.337Z,32.87
2023-05-01T05:06:23.457Z,32.95
2023-05-01T05:07:23.413Z,32.96
2023-05-01T05:08:23.500Z,32.93
2023-05-01T05:09:23.544Z,32.93
2023-05-01T05:10:23.568Z,32.91
2023-05-01T05:11:23.929Z,32.99
2023-05-01T05:12:23.693Z,32.96
2023-05-01T05:13:23.758Z,33.00
2023-05-01T05:14:23.801Z,33.02
2023-05-01T05:15:23.839Z,33.04
2023-05-01T05:16:24.450Z,33.09
2023-05-01T05:17:23.996Z,33.09
2023-05-01T05:18:24.080Z,33.11
2023-05-01T05:19:24.091Z,33.16
2023-05-01T05:20:24.179Z,33.17
2023-05-01T05:21:24.423Z,33.14
2023-05-01T05:22:24.296Z,33.16
2023-05-01T05:23:24.300Z,33.09
2023-05-01T05:24:24.371Z,33.28
2023-05-01T05:25:24.446Z,33.20
2023-05-01T05:26:24.954Z,33.18
2023-05-01T05:27:24.527Z,33.22
2023-05-01T05:28:24.573Z,33.24
2023-05-01T05:29:24.640Z,33.18
2023-05-01T05:30:24.719Z,33.23
2023-05-01T05:31:24.827Z,33.24
2023-05-01T05:32:24.920Z,33.18
2023-05-01T05:33:24.910Z,33.25
2023-05-01T05:34:24.997Z,33.24
2023-05-01T05:35:25.008Z,33.15
2023-05-01T05:36:25.069Z,33.22
2023-05-01T05:37:25.128Z,33.23
2023-05-01T05:38:25.200Z,33.23
2023-05-01T05:39:25.238Z,33.20
2023-05-01T05:40:25.300Z,33.17
2023-05-01T05:41:25.318Z,33.23
2023-05-01T05:42:25.409Z,33.20
2023-05-01T05:43:27.899Z,33.18
2023-05-01T05:44:25.468Z,33.11
2023-05-01T05:45:25.512Z,33.17
2023-05-01T05:46:25.502Z,33.09
2023-05-01T05:47:25.446Z,33.16
2023-05-01T05:48:25.522Z,33.11
2023-05-01T05:49:25.424Z,33.16
2023-05-01T05:50:25.413Z,33.19
2023-05-01T05:51:25.410Z,33.16
2023-05-01T05:52:25.432Z,33.16
2023-05-01T05:53:26.083Z,33.19
2023-05-01T05:54:25.396Z,33.14
2023-05-01T05:55:25.393Z,33.11
2023-05-01T05:56:25.389Z,33.21
2023-05-01T05:57:25.391Z,33.16
2023-05-01T05:58:25.385Z,33.11
2023-05-01T05:59:25.350Z,33.17
2023-05-01T06:00:25.389Z,33.11
2023-05-01T06:01:25.376Z,33.08
2023-05-01T06:02:25.494Z,33.12
2023-05-01T06:03:25.520Z,33.15
2023-05-01T06:04:25.351Z,33.10
2023-05-01T06:05:25.393Z,33.06
2023-05-01T06:06:25.353Z,33.19
2023-05-01T06:07:25.453Z,33.11
2023-05-01T06:08:25.309Z,33.08
2023-05-01T06:09:25.296Z,33.07
2023-05-01T06:10:25.306Z,33.22
2023-05-01T06:11:25.292Z,33.14
2023-05-01T06:12:25.278Z,33.07
2023-05-01T06:13:25.284Z,33.10
2023-05-01T06:14:25.287Z,33.12
2023-05-01T06:15:25.233Z,33.07
2023-05-01T06:16:25.322Z,33.11
2023-05-01T06:17:25.447Z,33.11
2023-05-01T06:18:25.415Z,33.14
2023-05-01T06:19:25.445Z,33.18
2023-05-01T06:20:25.512Z,33.17
2023-05-01T06:21:25.579Z,33.13
2023-05-01T06:22:25.622Z,33.08
2023-05-01T06:23:25.690Z,33.16
2023-05-01T06:24:25.768Z,33.16
2023-05-01T06:25:25.812Z,33.13
2023-05-01T06:26:25.848Z,33.12
2023-05-01T06:27:25.969Z,33.20
2023-05-01T06:28:25.977Z,33.21
2023-05-01T06:29:26.050Z,33.17
2023-05-01T06:30:26.115Z,33.21
2023-05-01T06:31:26.213Z,33.18
2023-05-01T06:32:26.506Z,33.30
2023-05-01T06:33:26.308Z,33.25
2023-05-01T06:34:26.363Z,33.26
2023-05-01T06:35:26.427Z,33.26
2023-05-01T06:36:26.466Z,33.35
2023-05-01T06:37:26.538Z,33.33
2023-05-01T06:38:27.105Z,33.40
2023-05-01T06:39:26.623Z,33.38
2023-05-01T06:40:26.696Z,33.40
2023-05-01T06:41:26.777Z,33.28
2023-05-01T06:42:26.851Z,33.27
2023-05-01T06:43:26.894Z,33.36
2023-05-01T06:44:27.008Z,33.29
2023-05-01T06:45:26.997Z,33.39
2023-05-01T06:46:27.128Z,33.36
2023-05-01T06:47:27.177Z,33.40
2023-05-01T06:48:27.204Z,33.36
2023-05-01T06:49:27.267Z,33.47
2023-05-01T06:50:27.316Z,33.52
2023-05-01T06:51:27.374Z,33.40
2023-05-01T06:52:27.435Z,33.32
2023-05-01T06:53:27.473Z,33.32
2023-05-01T06:54:27.542Z,33.37
2023-05-01T06:55:27.618Z,33.43
2023-05-01T06:56:27.696Z,33.38
2023-05-01T06:57:27.745Z,33.45
2023-05-01T06:58:27.798Z,33.44
2023-05-01T06:59:27.869Z,33.47
2023-05-01T07:00:28.508Z,33.49
2023-05-01T07:01:28.094Z,33.48
2023-05-01T07:02:28.519Z,33.52
2023-05-01T07:03:28.139Z,33.54
2023-05-01T07:04:28.127Z,33.48
2023-05-01T07:05:28.169Z,33.54
2023-05-01T07:06:28.320Z,33.52
2023-05-01T07:07:28.344Z,33.56
2023-05-01T07:08:28.401Z,33.48
2023-05-01T07:09:28.450Z,33.52
2023-05-01T07:10:28.490Z,33.45
2023-05-01T07:11:28.570Z,33.45
2023-05-01T07:12:28.963Z,33.56
2023-05-01T07:13:28.641Z,33.56
2023-05-01T07:14:28.712Z,33.45
2023-05-01T07:15:28.797Z,33.55
2023-05-01T07:16:28.898Z,33.55
2023-05-01T07:17:28.912Z,33.54
2023-05-01T07:18:28.986Z,33.57
2023-05-01T07:19:29.026Z,33.55
2023-05-01T07:20:29.106Z,33.41
2023-05-01T07:21:29.140Z,33.56
2023-05-01T07:22:29.462Z,33.39
2023-05-01T07:23:29.277Z,33.46
2023-05-01T07:24:29.302Z,33.47
2023-05-01T07:25:29.366Z,33.43
2023-05-01T07:26:29.415Z,33.51
2023-05-01T07:27:29.500Z,33.50
2023-05-01T07:28:29.573Z,33.51
2023-05-01T07:29:29.603Z,33.55
2023-05-01T07:30:29.657Z,33.49
2023-05-01T07:31:29.748Z,33.47
2023-05-01T07:32:30.026Z,33.54
2023-05-01T07:33:29.852Z,33.47
2023-05-01T07:34:29.920Z,33.55
2023-05-01T07:35:29.958Z,33.50
2023-05-01T07:36:30.040Z,33.39
2023-05-01T07:37:30.089Z,33.54
2023-05-01T07:38:30.986Z,33.54
2023-05-01T07:39:30.199Z,33.48
2023-05-01T07:40:30.265Z,33.45
2023-05-01T07:41:30.326Z,33.66
2023-05-01T07:42:30.378Z,33.53
2023-05-01T07:43:30.411Z,33.62
2023-05-01T07:44:30.512Z,33.62
2023-05-01T07:45:30.549Z,33.55
2023-05-01T07:46:30.674Z,33.45
2023-05-01T07:47:30.697Z,33.62
2023-05-01T07:48:30.677Z,33.63
2023-05-01T07:49:30.760Z,33.48
2023-05-01T07:50:30.795Z,33.67
2023-05-01T07:51:30.897Z,33.57
2023-05-01T07:52:30.972Z,33.64
2023-05-01T07:53:31.011Z,33.63
2023-05-01T07:54:31.033Z,33.53
2023-05-01T07:55:31.127Z,33.60
2023-05-01T07:56:31.141Z,33.59
2023-05-01T07:57:31.512Z,33.61
2023-05-01T07:58:31.305Z,33.49
2023-05-01T07:59:31.380Z,33.61
2023-05-01T08:00:31.429Z,33.50
2023-05-01T08:01:31.500Z,33.59
2023-05-01T08:02:31.824Z,33.65
2023-05-01T08:03:31.910Z,33.62
2023-05-01T08:04:31.650Z,33.48
2023-05-01T08:05:31.701Z,33.52
2023-05-01T08:06:31.790Z,33.51
2023-05-01T08:07:31.998Z,33.54
2023-05-01T08:08:31.900Z,33.62
2023-05-01T08:09:31.935Z,33.61
2023-05-01T08:10:32.097Z,33.67
2023-05-01T08:11:32.056Z,33.56
2023-05-01T08:12:32.469Z,33.51
2023-05-01T08:13:32.152Z,33.54
2023-05-01T08:14:32.195Z,33.57
2023-05-01T08:15:32.269Z,33.57
2023-05-01T08:16:32.387Z,33.65
2023-05-01T08:17:32.411Z,33.66
2023-05-01T08:18:32.441Z,33.60
2023-05-01T08:19:32.481Z,33.60
2023-05-01T08:20:32.552Z,33.60
2023-05-01T08:21:32.634Z,33.61
2023-05-01T08:22:32.684Z,33.48
2023-05-01T08:23:32.762Z,33.56
2023-05-01T08:24:32.818Z,33.54
2023-05-01T08:25:32.884Z,33.57
2023-05-01T08:26:32.899Z,33.59
2023-05-01T08:27:33.007Z,33.67
2023-05-01T08:28:33.064Z,33.78
2023-05-01T08:29:33.100Z,33.77
2023-05-01T08:30:33.140Z,33.71
2023-05-01T08:31:33.264Z,33.78
2023-05-01T08:32:33.329Z,33.84
2023-05-01T08:33:33.331Z,33.90
2023-05-01T08:34:33.404Z,33.91
2023-05-01T08:35:33.446Z,33.93
2023-05-01T08:36:33.481Z,33.85
2023-05-01T08:37:33.535Z,33.80
2023-05-01T08:38:33.600Z,33.91
2023-05-01T08:39:33.613Z,33.84
2023-05-01T08:40:33.721Z,33.83
2023-05-01T08:41:33.759Z,33.97
2023-05-01T08:42:34.028Z,33.86
2023-05-01T08:43:33.904Z,33.84
2023-05-01T08:44:33.929Z,33.88
2023-05-01T08:45:33.971Z,33.89
2023-05-01T08:46:34.211Z,33.94
2023-05-01T08:47:34.166Z,33.80
2023-05-01T08:48:34.180Z,33.76
2023-05-01T08:49:34.294Z,33.83
2023-05-01T08:50:34.292Z,33.88
2023-05-01T08:51:34.386Z,33.87
2023-05-01T08:52:34.439Z,33.95
2023-05-01T08:53:34.482Z,33.88
2023-05-01T08:54:34.521Z,33.90
2023-05-01T08:55:34.591Z,33.86
2023-05-01T08:56:34.676Z,33.85
2023-05-01T08:57:34.700Z,33.83
2023-05-01T08:58:34.881Z,33.89
2023-05-01T08:59:34.842Z,33.74
2023-05-01T09:00:34.901Z,33.94
2023-05-01T09:01:35.045Z,33.83
2023-05-01T09:02:35.583Z,33.98
2023-05-01T09:03:35.139Z,33.90
2023-05-01T09:04:35.159Z,33.98
2023-05-01T09:05:35.162Z,33.99
2023-05-01T09:06:35.263Z,34.05
2023-05-01T09:07:35.302Z,34.04
2023-05-01T09:08:35.356Z,33.98
2023-05-01T09:09:35.393Z,34.06
2023-05-01T09:10:35.477Z,34.04
2023-05-01T09:11:35.545Z,33.89
2023-05-01T09:12:35.626Z,34.03
2023-05-01T09:13:35.647Z,33.87
2023-05-01T09:14:35.698Z,34.03
2023-05-01T09:15:35.754Z,33.85
2023-05-01T09:16:35.831Z,33.92
2023-05-01T09:17:35.916Z,33.88
2023-05-01T09:18:35.926Z,34.03
2023-05-01T09:19:35.984Z,34.11
2023-05-01T09:20:36.053Z,34.09
2023-05-01T09:21:36.123Z,34.15
2023-05-01T09:22:36.185Z,34.10
2023-05-01T09:23:36.243Z,34.08
2023-05-01T09:24:36.290Z,34.09
2023-05-01T09:25:36.368Z,33.89
2023-05-01T09:26:36.443Z,34.12
2023-05-01T09:27:36.493Z,34.18
2023-05-01T09:28:36.544Z,33.95
2023-05-01T09:29:36.584Z,33.99
2023-05-01T09:30:36.680Z,34.04
2023-05-01T09:31:36.743Z,34.10
2023-05-01T09:32:36.813Z,34.21
2023-05-01T09:33:36.849Z,34.32
2023-05-01T09:34:36.893Z,34.30
2023-05-01T09:35:36.982Z,34.08
2023-05-01T09:36:37.045Z,34.26
2023-05-01T09:37:37.083Z,34.24
2023-05-01T09:38:37.141Z,34.16
2023-05-01T09:39:37.200Z,34.35
2023-05-01T09:40:37.268Z,34.23
2023-05-01T09:41:37.338Z,34.35
2023-05-01T09:42:37.375Z,34.33
2023-05-01T09:43:37.448Z,34.36
2023-05-01T09:44:37.537Z,34.40
2023-05-01T09:45:37.580Z,34.37
2023-05-01T09:46:37.750Z,34.23
2023-05-01T09:47:37.744Z,34.40
2023-05-01T09:48:37.773Z,34.49
2023-05-01T09:49:37.799Z,34.49
2023-05-01T09:50:37.886Z,34.44
2023-05-01T09:51:37.918Z,34.31
2023-05-01T09:52:38.021Z,34.49
2023-05-01T09:53:38.064Z,34.47
2023-05-01T09:54:38.105Z,34.15
2023-05-01T09:55:38.144Z,34.47
2023-05-01T09:56:38.234Z,34.29
2023-05-01T09:57:38.295Z,34.36
2023-05-01T09:58:38.332Z,34.35
2023-05-01T09:59:38.390Z,34.25
2023-05-01T10:00:38.455Z,34.45
2023-05-01T10:01:38.619Z,34.47
2023-05-01T10:02:38.744Z,34.61
2023-05-01T10:03:38.802Z,34.60
2023-05-01T10:04:38.694Z,34.29
2023-05-01T10:05:38.731Z,34.51
2023-05-01T10:06:39.018Z,34.31
2023-05-01T10:07:39.026Z,34.54
2023-05-01T10:08:38.923Z,34.52
2023-05-01T10:09:38.978Z,34.46
2023-05-01T10:10:39.049Z,34.57
2023-05-01T10:11:39.098Z,34.40
2023-05-01T10:12:39.522Z,34.51
2023-05-01T10:13:39.209Z,34.51
2023-05-01T10:14:39.290Z,34.57
2023-05-01T10:15:39.323Z,34.43
2023-05-01T10:16:39.385Z,34.65
2023-05-01T10:17:39.493Z,34.60
2023-05-01T10:18:39.469Z,34.55
2023-05-01T10:19:39.536Z,34.65
2023-05-01T10:20:39.580Z,34.70
2023-05-01T10:21:39.677Z,34.59
2023-05-01T10:22:39.702Z,34.68
2023-05-01T10:23:39.763Z,34.78
2023-05-01T10:24:39.838Z,34.32
2023-05-01T10:25:39.923Z,34.59
2023-05-01T10:26:39.945Z,34.45
2023-05-01T10:27:40.000Z,34.54
2023-05-01T10:28:40.060Z,34.62
2023-05-01T10:29:40.100Z,34.65
2023-05-01T10:30:40.177Z,34.68
2023-05-01T10:31:42.505Z,34.69
2023-05-01T10:32:40.574Z,34.81
2023-05-01T10:33:40.453Z,34.51
2023-05-01T10:34:40.496Z,34.64
2023-05-01T10:35:40.594Z,34.68
2023-05-01T10:36:40.611Z,34.58
2023-05-01T10:37:40.667Z,34.71
2023-05-01T10:38:40.731Z,34.70
2023-05-01T10:39:40.814Z,34.63
2023-05-01T10:40:40.970Z,34.79
2023-05-01T10:41:40.925Z,34.70
2023-05-01T10:42:40.971Z,34.76
2023-05-01T10:43:41.060Z,34.69
2023-05-01T10:44:41.163Z,34.70
2023-05-01T10:45:41.186Z,34.65
2023-05-01T10:46:41.268Z,34.50
2023-05-01T10:47:41.315Z,34.60
2023-05-01T10:48:41.315Z,34.62
2023-05-01T10:49:41.408Z,34.69
2023-05-01T10:50:41.434Z,34.48
2023-05-01T10:51:41.504Z,34.53
2023-05-01T10:52:41.553Z,34.32
2023-05-01T10:53:41.631Z,34.62
2023-05-01T10:54:41.702Z,34.48
2023-05-01T10:55:41.745Z,34.68
2023-05-01T10:56:41.828Z,34.59
2023-05-01T10:57:41.871Z,34.60
2023-05-01T10:58:41.903Z,34.48
2023-05-01T10:59:41.977Z,34.51
2023-05-01T11:00:42.022Z,34.43
2023-05-01T11:01:42.110Z,34.32
2023-05-01T11:02:42.148Z,34.25
2023-05-01T11:03:42.190Z,34.27
2023-05-01T11:04:42.282Z,34.21
2023-05-01T11:05:42.334Z,34.16
2023-05-01T11:06:42.576Z,34.30
2023-05-01T11:07:42.409Z,34.29
2023-05-01T11:08:42.768Z,34.28
2023-05-01T11:09:42.578Z,34.24
2023-05-01T11:10:42.579Z,34.37
2023-05-01T11:11:42.626Z,34.19
2023-05-01T11:12:42.644Z,34.24
2023-05-01T11:13:42.718Z,34.27
2023-05-01T11:14:42.773Z,34.28
2023-05-01T11:15:42.823Z,34.18
2023-05-01T11:16:42.917Z,34.24
2023-05-01T11:17:43.373Z,34.30
2023-05-01T11:18:42.991Z,34.24
2023-05-01T11:19:43.004Z,34.12
2023-05-01T11:20:43.082Z,34.18
2023-05-01T11:21:43.139Z,34.21
2023-05-01T11:22:43.154Z,34.16
2023-05-01T11:24:31.740Z,34.16
2023-05-01T11:25:31.757Z,34.14
2023-05-01T11:26:32.483Z,34.10
2023-05-01T11:27:31.736Z,34.24
2023-05-01T11:28:31.717Z,34.16
2023-05-01T11:29:31.721Z,34.26
2023-05-01T11:30:31.692Z,34.17
2023-05-01T11:31:31.728Z,34.12
2023-05-01T11:32:31.735Z,34.14
2023-05-01T11:33:31.671Z,34.10
2023-05-01T11:34:31.686Z,34.08
2023-05-01T11:35:31.685Z,34.05
2023-05-01T11:36:31.655Z,34.06
2023-05-01T11:37:31.627Z,34.03
2023-05-01T11:38:31.686Z,34.01
2023-05-01T11:39:31.636Z,33.99
2023-05-01T11:40:31.689Z,34.05
2023-05-01T11:41:31.639Z,33.98
2023-05-01T11:42:31.691Z,33.98
2023-05-01T11:43:31.626Z,34.03
2023-05-01T11:44:31.592Z,33.97
2023-05-01T11:45:31.657Z,33.94
2023-05-01T11:46:31.716Z,33.98
2023-05-01T11:47:31.641Z,33.95
2023-05-01T11:48:31.952Z,33.94
2023-05-01T11:49:31.592Z,33.95
2023-05-01T11:50:31.583Z,33.95
2023-05-01T11:51:31.578Z,33.86
2023-05-01T11:52:31.575Z,33.93
2023-05-01T11:53:31.954Z,33.85
2023-05-01T11:54:31.560Z,33.87
2023-05-01T11:55:31.559Z,33.88
2023-05-01T11:56:31.535Z,33.90
2023-05-01T11:57:31.566Z,33.85
2023-05-01T11:58:31.628Z,33.80
2023-05-01T11:59:31.659Z,33.84
2023-05-01T12:00:31.709Z,33.83
2023-05-01T12:01:31.748Z,33.83
2023-05-01T12:02:31.980Z,33.82
2023-05-01T12:03:31.966Z,33.83
2023-05-01T12:04:32.508Z,33.82
2023-05-01T12:05:31.906Z,33.85
2023-05-01T12:06:31.987Z,33.82
2023-05-01T12:07:31.986Z,33.77
2023-05-01T12:08:32.026Z,33.79
2023-05-01T12:09:32.059Z,33.78
2023-05-01T12:10:33.556Z,33.78
2023-05-01T12:11:32.073Z,33.74
2023-05-01T12:12:32.080Z,33.73
2023-05-01T12:13:32.065Z,33.72
2023-05-01T12:14:32.100Z,33.74
2023-05-01T12:15:32.080Z,33.72
2023-05-01T12:16:32.129Z,33.72
2023-05-01T12:17:32.123Z,33.74
2023-05-01T12:18:32.099Z,33.74
2023-05-01T12:19:32.043Z,33.73
2023-05-01T12:20:32.017Z,33.71
2023-05-01T12:21:32.070Z,33.76
2023-05-01T12:22:32.017Z,33.71
2023-05-01T12:23:31.994Z,33.70
2023-05-01T12:24:32.006Z,33.68
2023-05-01T12:25:31.980Z,33.67
2023-05-01T12:26:31.984Z,33.67
2023-05-01T12:27:31.958Z,33.72
2023-05-01T12:28:31.982Z,33.68
2023-05-01T12:29:31.938Z,33.71
2023-05-01T12:30:31.939Z,33.65
2023-05-01T12:31:32.015Z,33.70
2023-05-01T12:32:31.994Z,33.69
2023-05-01T12:33:31.938Z,33.67
2023-05-01T12:34:31.920Z,33.64
2023-05-01T12:35:31.912Z,33.66
2023-05-01T12:36:31.938Z,33.65
2023-05-01T12:37:31.909Z,33.66
2023-05-01T12:38:31.895Z,33.57
2023-05-01T12:39:31.904Z,33.62
2023-05-01T12:40:31.875Z,33.55
2023-05-01T12:41:31.869Z,33.54
2023-05-01T12:42:31.878Z,33.59
2023-05-01T12:43:31.877Z,33.55
2023-05-01T12:44:31.864Z,33.54
2023-05-01T12:45:31.874Z,33.49
2023-05-01T12:46:31.938Z,33.51
2023-05-01T12:47:31.855Z,33.46
2023-05-01T12:48:31.843Z,33.49
2023-05-01T12:49:31.858Z,33.53
2023-05-01T12:50:31.810Z,33.51
2023-05-01T12:51:31.815Z,33.41
2023-05-01T12:52:31.805Z,33.42
2023-05-01T12:53:31.802Z,33.42